sensor_id;sensor_type;location;lat;lon;timestamp;P1;durP1;ratioP1;P2;durP2;ratioP2
69034;SDS011;56091;55.756;37.412;2024-03-06T00:04:12;4.60;;;1.50;;
69034;SDS011;56091;55.756;37.412;2024-03-06T00:09:13;6.73;;;1.70;;
69034;SDS011;56091;55.756;37.412;2024-03-06T00:14:14;5.03;;;1.38;;
69034;SDS011;56091;55.756;37.412;2024-03-06T00:19:14;7.00;;;1.50;;
69034;SDS011;56091;55.756;37.412;2024-03-06T00:24:15;5.37;;;1.80;;
69034;SDS011;56091;55.756;37.412;2024-03-06T00:29:16;5.15;;;1.63;;
69034;SDS011;56091;55.756;37.412;2024-03-06T00:34:17;7.47;;;1.73;;
69034;SDS011;56091;55.756;37.412;2024-03-06T00:39:18;6.45;;;1.60;;
69034;SDS011;56091;55.756;37.412;2024-03-06T00:44:18;5.90;;;1.60;;
69034;SDS011;56091;55.756;37.412;2024-03-06T00:49:19;6.73;;;1.63;;
69034;SDS011;56091;55.756;37.412;2024-03-06T00:54:20;5.88;;;1.70;;
69034;SDS011;56091;55.756;37.412;2024-03-06T00:59:21;4.90;;;1.60;;
69034;SDS011;56091;55.756;37.412;2024-03-06T01:04:22;5.43;;;1.50;;
69034;SDS011;56091;55.756;37.412;2024-03-06T01:09:23;5.57;;;1.55;;
69034;SDS011;56091;55.756;37.412;2024-03-06T01:14:25;4.72;;;1.63;;
69034;SDS011;56091;55.756;37.412;2024-03-06T01:19:26;7.22;;;1.92;;
69034;SDS011;56091;55.756;37.412;2024-03-06T01:24:26;6.53;;;1.50;;
69034;SDS011;56091;55.756;37.412;2024-03-06T01:29:27;6.57;;;1.65;;
69034;SDS011;56091;55.756;37.412;2024-03-06T01:34:28;6.50;;;1.80;;
69034;SDS011;56091;55.756;37.412;2024-03-06T01:39:30;6.00;;;1.70;;
69034;SDS011;56091;55.756;37.412;2024-03-06T01:44:30;6.47;;;1.83;;
69034;SDS011;56091;55.756;37.412;2024-03-06T01:49:31;6.53;;;1.80;;
69034;SDS011;56091;55.756;37.412;2024-03-06T01:54:32;4.60;;;1.60;;
69034;SDS011;56091;55.756;37.412;2024-03-06T01:59:33;7.37;;;1.70;;
69034;SDS011;56091;55.756;37.412;2024-03-06T02:04:34;5.25;;;1.70;;
69034;SDS011;56091;55.756;37.412;2024-03-06T02:09:35;6.37;;;1.90;;
69034;SDS011;56091;55.756;37.412;2024-03-06T02:14:36;7.40;;;2.25;;
69034;SDS011;56091;55.756;37.412;2024-03-06T02:19:40;5.63;;;2.03;;
69034;SDS011;56091;55.756;37.412;2024-03-06T02:24:43;5.72;;;1.77;;
69034;SDS011;56091;55.756;37.412;2024-03-06T02:29:45;5.03;;;2.00;;
69034;SDS011;56091;55.756;37.412;2024-03-06T02:34:46;6.32;;;2.10;;
69034;SDS011;56091;55.756;37.412;2024-03-06T02:39:46;7.77;;;1.80;;
69034;SDS011;56091;55.756;37.412;2024-03-06T02:44:47;5.63;;;1.70;;
69034;SDS011;56091;55.756;37.412;2024-03-06T02:49:48;8.40;;;1.83;;
69034;SDS011;56091;55.756;37.412;2024-03-06T02:54:49;7.73;;;1.90;;
69034;SDS011;56091;55.756;37.412;2024-03-06T02:59:50;5.88;;;2.00;;
69034;SDS011;56091;55.756;37.412;2024-03-06T03:04:51;5.38;;;1.80;;
69034;SDS011;56091;55.756;37.412;2024-03-06T03:09:54;6.33;;;1.83;;
69034;SDS011;56091;55.756;37.412;2024-03-06T03:14:55;8.80;;;2.40;;
69034;SDS011;56091;55.756;37.412;2024-03-06T03:19:56;5.53;;;2.07;;
69034;SDS011;56091;55.756;37.412;2024-03-06T03:24:57;7.45;;;2.47;;
69034;SDS011;56091;55.756;37.412;2024-03-06T03:29:57;6.27;;;1.93;;
69034;SDS011;56091;55.756;37.412;2024-03-06T03:34:58;6.93;;;2.23;;
69034;SDS011;56091;55.756;37.412;2024-03-06T03:39:59;6.45;;;2.33;;
69034;SDS011;56091;55.756;37.412;2024-03-06T03:45:00;11.93;;;2.53;;
69034;SDS011;56091;55.756;37.412;2024-03-06T03:50:03;8.38;;;2.08;;
69034;SDS011;56091;55.756;37.412;2024-03-06T03:55:04;9.77;;;2.97;;
69034;SDS011;56091;55.756;37.412;2024-03-06T04:00:05;7.65;;;2.30;;
69034;SDS011;56091;55.756;37.412;2024-03-06T04:05:12;7.53;;;2.40;;
69034;SDS011;56091;55.756;37.412;2024-03-06T04:10:13;6.30;;;2.20;;
69034;SDS011;56091;55.756;37.412;2024-03-06T04:15:14;7.33;;;2.40;;
69034;SDS011;56091;55.756;37.412;2024-03-06T04:20:14;6.97;;;2.40;;
69034;SDS011;56091;55.756;37.412;2024-03-06T04:25:16;7.10;;;2.30;;
69034;SDS011;56091;55.756;37.412;2024-03-06T04:30:17;5.85;;;2.20;;
69034;SDS011;56091;55.756;37.412;2024-03-06T04:35:19;5.70;;;2.27;;
69034;SDS011;56091;55.756;37.412;2024-03-06T04:40:20;9.70;;;2.97;;
69034;SDS011;56091;55.756;37.412;2024-03-06T04:45:22;11.50;;;2.70;;
69034;SDS011;56091;55.756;37.412;2024-03-06T04:50:23;8.27;;;2.50;;
69034;SDS011;56091;55.756;37.412;2024-03-06T04:55:24;6.95;;;2.40;;
69034;SDS011;56091;55.756;37.412;2024-03-06T05:00:25;7.73;;;2.40;;
69034;SDS011;56091;55.756;37.412;2024-03-06T05:05:26;6.60;;;2.55;;
69034;SDS011;56091;55.756;37.412;2024-03-06T05:10:28;8.50;;;2.80;;
69034;SDS011;56091;55.756;37.412;2024-03-06T05:15:28;5.27;;;2.13;;
69034;SDS011;56091;55.756;37.412;2024-03-06T05:20:29;7.70;;;2.28;;
69034;SDS011;56091;55.756;37.412;2024-03-06T05:25:31;8.70;;;2.60;;
69034;SDS011;56091;55.756;37.412;2024-03-06T05:30:32;7.35;;;2.53;;
69034;SDS011;56091;55.756;37.412;2024-03-06T05:35:32;7.10;;;2.47;;
69034;SDS011;56091;55.756;37.412;2024-03-06T05:40:34;7.77;;;2.60;;
69034;SDS011;56091;55.756;37.412;2024-03-06T05:45:37;11.30;;;2.63;;
69034;SDS011;56091;55.756;37.412;2024-03-06T05:50:38;8.27;;;3.00;;
69034;SDS011;56091;55.756;37.412;2024-03-06T05:55:39;9.50;;;2.97;;
69034;SDS011;56091;55.756;37.412;2024-03-06T06:00:41;8.60;;;2.87;;
69034;SDS011;56091;55.756;37.412;2024-03-06T06:05:42;6.90;;;2.85;;
69034;SDS011;56091;55.756;37.412;2024-03-06T06:10:43;8.80;;;2.90;;
69034;SDS011;56091;55.756;37.412;2024-03-06T06:15:44;8.13;;;2.77;;
69034;SDS011;56091;55.756;37.412;2024-03-06T06:20:44;8.65;;;3.25;;
69034;SDS011;56091;55.756;37.412;2024-03-06T06:25:45;7.27;;;2.87;;
69034;SDS011;56091;55.756;37.412;2024-03-06T06:30:46;13.33;;;3.00;;
69034;SDS011;56091;55.756;37.412;2024-03-06T06:35:47;7.57;;;2.80;;
69034;SDS011;56091;55.756;37.412;2024-03-06T06:40:47;6.77;;;2.67;;
69034;SDS011;56091;55.756;37.412;2024-03-06T06:45:48;10.25;;;2.72;;
69034;SDS011;56091;55.756;37.412;2024-03-06T06:50:49;16.40;;;2.90;;
69034;SDS011;56091;55.756;37.412;2024-03-06T06:55:50;10.30;;;2.83;;
69034;SDS011;56091;55.756;37.412;2024-03-06T07:00:50;12.48;;;3.10;;
69034;SDS011;56091;55.756;37.412;2024-03-06T07:05:51;8.77;;;3.22;;
69034;SDS011;56091;55.756;37.412;2024-03-06T07:10:52;8.30;;;2.60;;
69034;SDS011;56091;55.756;37.412;2024-03-06T07:15:55;9.57;;;2.50;;
69034;SDS011;56091;55.756;37.412;2024-03-06T07:20:56;8.73;;;2.97;;
69034;SDS011;56091;55.756;37.412;2024-03-06T07:25:57;8.27;;;2.80;;
69034;SDS011;56091;55.756;37.412;2024-03-06T07:30:59;14.50;;;3.23;;
69034;SDS011;56091;55.756;37.412;2024-03-06T07:36:00;17.57;;;3.27;;
69034;SDS011;56091;55.756;37.412;2024-03-06T07:41:01;10.32;;;3.33;;
69034;SDS011;56091;55.756;37.412;2024-03-06T07:46:02;10.10;;;3.03;;
69034;SDS011;56091;55.756;37.412;2024-03-06T07:51:03;10.02;;;3.55;;
69034;SDS011;56091;55.756;37.412;2024-03-06T07:56:04;11.60;;;2.93;;
69034;SDS011;56091;55.756;37.412;2024-03-06T08:01:05;11.52;;;3.10;;
69034;SDS011;56091;55.756;37.412;2024-03-06T08:06:07;10.00;;;3.47;;
69034;SDS011;56091;55.756;37.412;2024-03-06T08:11:12;8.93;;;3.33;;
69034;SDS011;56091;55.756;37.412;2024-03-06T08:16:15;7.87;;;3.00;;
69034;SDS011;56091;55.756;37.412;2024-03-06T08:21:17;11.90;;;4.10;;
69034;SDS011;56091;55.756;37.412;2024-03-06T08:26:20;10.87;;;2.77;;
69034;SDS011;56091;55.756;37.412;2024-03-06T08:31:20;18.52;;;3.80;;
69034;SDS011;56091;55.756;37.412;2024-03-06T08:36:22;12.87;;;3.70;;
69034;SDS011;56091;55.756;37.412;2024-03-06T08:41:24;7.63;;;2.55;;
69034;SDS011;56091;55.756;37.412;2024-03-06T08:46:25;12.40;;;2.60;;
69034;SDS011;56091;55.756;37.412;2024-03-06T08:51:26;9.60;;;3.47;;
69034;SDS011;56091;55.756;37.412;2024-03-06T08:56:27;8.02;;;2.45;;
69034;SDS011;56091;55.756;37.412;2024-03-06T09:01:28;10.80;;;3.37;;
69034;SDS011;56091;55.756;37.412;2024-03-06T09:06:28;7.03;;;2.55;;
69034;SDS011;56091;55.756;37.412;2024-03-06T09:11:29;7.23;;;2.73;;
69034;SDS011;56091;55.756;37.412;2024-03-06T09:16:30;9.70;;;2.50;;
69034;SDS011;56091;55.756;37.412;2024-03-06T09:21:30;10.63;;;2.92;;
69034;SDS011;56091;55.756;37.412;2024-03-06T09:26:31;6.65;;;2.65;;
69034;SDS011;56091;55.756;37.412;2024-03-06T09:31:32;12.63;;;2.77;;
69034;SDS011;56091;55.756;37.412;2024-03-06T09:36:32;6.43;;;2.60;;
69034;SDS011;56091;55.756;37.412;2024-03-06T09:41:33;6.60;;;2.47;;
69034;SDS011;56091;55.756;37.412;2024-03-06T09:46:34;6.20;;;2.30;;
69034;SDS011;56091;55.756;37.412;2024-03-06T09:51:35;8.48;;;2.90;;
69034;SDS011;56091;55.756;37.412;2024-03-06T09:56:36;9.17;;;2.70;;
69034;SDS011;56091;55.756;37.412;2024-03-06T10:06:50;11.23;;;2.90;;
69034;SDS011;56091;55.756;37.412;2024-03-06T10:11:51;10.02;;;3.10;;
69034;SDS011;56091;55.756;37.412;2024-03-06T10:21:56;8.65;;;2.78;;
69034;SDS011;56091;55.756;37.412;2024-03-06T10:26:58;11.07;;;2.90;;
69034;SDS011;56091;55.756;37.412;2024-03-06T10:32:00;8.52;;;3.13;;
69034;SDS011;56091;55.756;37.412;2024-03-06T10:37:01;8.13;;;3.03;;
69034;SDS011;56091;55.756;37.412;2024-03-06T10:42:06;8.52;;;2.60;;
69034;SDS011;56091;55.756;37.412;2024-03-06T10:47:09;8.93;;;2.70;;
69034;SDS011;56091;55.756;37.412;2024-03-06T10:52:10;13.05;;;3.05;;
69034;SDS011;56091;55.756;37.412;2024-03-06T10:57:11;11.03;;;2.67;;
69034;SDS011;56091;55.756;37.412;2024-03-06T11:02:12;7.53;;;2.65;;
69034;SDS011;56091;55.756;37.412;2024-03-06T11:07:13;12.50;;;3.53;;
69034;SDS011;56091;55.756;37.412;2024-03-06T11:12:35;9.00;;;3.40;;
69034;SDS011;56091;55.756;37.412;2024-03-06T11:17:39;11.85;;;3.20;;
69034;SDS011;56091;55.756;37.412;2024-03-06T11:28:03;12.98;;;3.05;;
69034;SDS011;56091;55.756;37.412;2024-03-06T11:33:04;9.20;;;3.00;;
69034;SDS011;56091;55.756;37.412;2024-03-06T11:38:05;7.75;;;3.22;;
69034;SDS011;56091;55.756;37.412;2024-03-06T11:43:25;8.87;;;3.40;;
69034;SDS011;56091;55.756;37.412;2024-03-06T11:48:27;7.82;;;3.40;;
69034;SDS011;56091;55.756;37.412;2024-03-06T11:53:32;12.27;;;3.50;;
69034;SDS011;56091;55.756;37.412;2024-03-06T11:58:34;9.80;;;3.30;;
69034;SDS011;56091;55.756;37.412;2024-03-06T12:03:35;8.17;;;3.30;;
69034;SDS011;56091;55.756;37.412;2024-03-06T12:08:36;11.75;;;3.78;;
69034;SDS011;56091;55.756;37.412;2024-03-06T12:13:37;9.85;;;3.50;;
69034;SDS011;56091;55.756;37.412;2024-03-06T12:18:38;8.93;;;2.90;;
69034;SDS011;56091;55.756;37.412;2024-03-06T12:23:38;9.30;;;2.92;;
69034;SDS011;56091;55.756;37.412;2024-03-06T12:28:39;7.27;;;2.47;;
69034;SDS011;56091;55.756;37.412;2024-03-06T12:33:40;9.02;;;2.55;;
69034;SDS011;56091;55.756;37.412;2024-03-06T12:38:42;8.73;;;2.47;;
69034;SDS011;56091;55.756;37.412;2024-03-06T12:43:43;6.70;;;2.10;;
69034;SDS011;56091;55.756;37.412;2024-03-06T12:48:43;11.20;;;2.30;;
69034;SDS011;56091;55.756;37.412;2024-03-06T12:53:45;5.80;;;2.10;;
69034;SDS011;56091;55.756;37.412;2024-03-06T12:58:45;5.68;;;1.80;;
69034;SDS011;56091;55.756;37.412;2024-03-06T13:03:47;6.83;;;1.97;;
69034;SDS011;56091;55.756;37.412;2024-03-06T13:08:49;7.82;;;2.00;;
69034;SDS011;56091;55.756;37.412;2024-03-06T13:13:50;7.03;;;1.87;;
69034;SDS011;56091;55.756;37.412;2024-03-06T13:18:51;6.13;;;1.90;;
69034;SDS011;56091;55.756;37.412;2024-03-06T13:23:52;5.57;;;1.70;;
69034;SDS011;56091;55.756;37.412;2024-03-06T13:28:53;6.03;;;1.90;;
69034;SDS011;56091;55.756;37.412;2024-03-06T13:33:54;4.50;;;1.43;;
69034;SDS011;56091;55.756;37.412;2024-03-06T13:38:55;8.07;;;1.50;;
69034;SDS011;56091;55.756;37.412;2024-03-06T13:43:56;8.93;;;1.70;;
69034;SDS011;56091;55.756;37.412;2024-03-06T13:48:57;5.43;;;1.42;;
69034;SDS011;56091;55.756;37.412;2024-03-06T13:53:58;6.40;;;1.60;;
69034;SDS011;56091;55.756;37.412;2024-03-06T13:58:59;9.63;;;1.60;;
69034;SDS011;56091;55.756;37.412;2024-03-06T14:04:00;5.07;;;1.50;;
69034;SDS011;56091;55.756;37.412;2024-03-06T14:09:00;6.03;;;1.60;;
69034;SDS011;56091;55.756;37.412;2024-03-06T14:14:01;8.48;;;1.77;;
69034;SDS011;56091;55.756;37.412;2024-03-06T14:19:02;16.73;;;1.70;;
69034;SDS011;56091;55.756;37.412;2024-03-06T14:24:04;7.60;;;1.50;;
69034;SDS011;56091;55.756;37.412;2024-03-06T14:29:09;6.20;;;1.50;;
69034;SDS011;56091;55.756;37.412;2024-03-06T14:34:10;6.47;;;1.80;;
69034;SDS011;56091;55.756;37.412;2024-03-06T14:39:10;11.15;;;2.38;;
69034;SDS011;56091;55.756;37.412;2024-03-06T14:44:13;15.27;;;3.73;;
69034;SDS011;56091;55.756;37.412;2024-03-06T14:49:14;9.15;;;2.00;;
69034;SDS011;56091;55.756;37.412;2024-03-06T14:54:16;7.40;;;1.80;;
69034;SDS011;56091;55.756;37.412;2024-03-06T14:59:17;6.90;;;2.10;;
69034;SDS011;56091;55.756;37.412;2024-03-06T15:04:17;11.18;;;2.30;;
69034;SDS011;56091;55.756;37.412;2024-03-06T15:09:18;9.00;;;2.40;;
69034;SDS011;56091;55.756;37.412;2024-03-06T15:14:22;8.93;;;2.10;;
69034;SDS011;56091;55.756;37.412;2024-03-06T15:19:23;10.30;;;2.43;;
69034;SDS011;56091;55.756;37.412;2024-03-06T15:24:24;7.03;;;2.13;;
69034;SDS011;56091;55.756;37.412;2024-03-06T15:29:25;9.67;;;2.17;;
69034;SDS011;56091;55.756;37.412;2024-03-06T15:34:26;8.53;;;2.03;;
69034;SDS011;56091;55.756;37.412;2024-03-06T15:39:27;6.72;;;1.92;;
69034;SDS011;56091;55.756;37.412;2024-03-06T15:44:28;9.13;;;1.90;;
69034;SDS011;56091;55.756;37.412;2024-03-06T15:49:28;8.87;;;1.80;;
69034;SDS011;56091;55.756;37.412;2024-03-06T15:54:29;8.88;;;2.20;;
69034;SDS011;56091;55.756;37.412;2024-03-06T15:59:32;14.93;;;3.13;;
69034;SDS011;56091;55.756;37.412;2024-03-06T16:04:34;11.05;;;2.90;;
69034;SDS011;56091;55.756;37.412;2024-03-06T16:09:34;10.23;;;2.37;;
69034;SDS011;56091;55.756;37.412;2024-03-06T16:14:35;9.47;;;2.47;;
69034;SDS011;56091;55.756;37.412;2024-03-06T16:19:36;11.27;;;2.75;;
69034;SDS011;56091;55.756;37.412;2024-03-06T16:24:37;18.80;;;2.60;;
69034;SDS011;56091;55.756;37.412;2024-03-06T16:29:38;9.23;;;2.70;;
69034;SDS011;56091;55.756;37.412;2024-03-06T16:34:38;12.40;;;3.42;;
69034;SDS011;56091;55.756;37.412;2024-03-06T16:39:40;10.27;;;2.90;;
69034;SDS011;56091;55.756;37.412;2024-03-06T16:44:40;10.88;;;2.83;;
69034;SDS011;56091;55.756;37.412;2024-03-06T16:49:42;10.67;;;2.50;;
69034;SDS011;56091;55.756;37.412;2024-03-06T16:54:42;10.40;;;2.72;;
69034;SDS011;56091;55.756;37.412;2024-03-06T16:59:43;9.13;;;2.43;;
69034;SDS011;56091;55.756;37.412;2024-03-06T17:04:44;12.30;;;2.63;;
69034;SDS011;56091;55.756;37.412;2024-03-06T17:09:45;12.43;;;2.63;;
69034;SDS011;56091;55.756;37.412;2024-03-06T17:14:46;14.00;;;3.03;;
69034;SDS011;56091;55.756;37.412;2024-03-06T17:19:47;12.95;;;3.40;;
69034;SDS011;56091;55.756;37.412;2024-03-06T17:24:48;12.97;;;3.93;;
69034;SDS011;56091;55.756;37.412;2024-03-06T17:29:49;12.68;;;3.60;;
69034;SDS011;56091;55.756;37.412;2024-03-06T17:34:49;13.37;;;3.67;;
69034;SDS011;56091;55.756;37.412;2024-03-06T17:39:50;13.85;;;3.40;;
69034;SDS011;56091;55.756;37.412;2024-03-06T17:44:51;14.07;;;2.90;;
69034;SDS011;56091;55.756;37.412;2024-03-06T17:49:52;7.70;;;2.50;;
69034;SDS011;56091;55.756;37.412;2024-03-06T17:54:53;10.65;;;3.25;;
69034;SDS011;56091;55.756;37.412;2024-03-06T17:59:56;9.17;;;3.40;;
69034;SDS011;56091;55.756;37.412;2024-03-06T18:04:57;13.48;;;3.15;;
69034;SDS011;56091;55.756;37.412;2024-03-06T18:09:58;17.83;;;4.37;;
69034;SDS011;56091;55.756;37.412;2024-03-06T18:14:59;17.00;;;4.50;;
69034;SDS011;56091;55.756;37.412;2024-03-06T18:20:01;14.57;;;4.67;;
69034;SDS011;56091;55.756;37.412;2024-03-06T18:25:04;23.75;;;7.88;;
69034;SDS011;56091;55.756;37.412;2024-03-06T18:30:06;19.33;;;6.37;;
69034;SDS011;56091;55.756;37.412;2024-03-06T18:35:07;22.00;;;4.80;;
69034;SDS011;56091;55.756;37.412;2024-03-06T18:40:08;10.53;;;3.37;;
69034;SDS011;56091;55.756;37.412;2024-03-06T18:45:13;17.27;;;4.30;;
69034;SDS011;56091;55.756;37.412;2024-03-06T18:50:15;16.90;;;4.80;;
69034;SDS011;56091;55.756;37.412;2024-03-06T18:55:17;19.85;;;4.93;;
69034;SDS011;56091;55.756;37.412;2024-03-06T19:00:18;18.03;;;4.07;;
69034;SDS011;56091;55.756;37.412;2024-03-06T19:05:19;15.25;;;4.30;;
69034;SDS011;56091;55.756;37.412;2024-03-06T19:10:20;11.07;;;2.90;;
69034;SDS011;56091;55.756;37.412;2024-03-06T19:15:21;9.68;;;2.78;;
69034;SDS011;56091;55.756;37.412;2024-03-06T19:20:23;9.33;;;3.20;;
69034;SDS011;56091;55.756;37.412;2024-03-06T19:25:23;9.20;;;2.35;;
69034;SDS011;56091;55.756;37.412;2024-03-06T19:30:24;7.77;;;2.17;;
69034;SDS011;56091;55.756;37.412;2024-03-06T19:35:25;7.90;;;3.00;;
69034;SDS011;56091;55.756;37.412;2024-03-06T19:40:26;8.88;;;2.78;;
69034;SDS011;56091;55.756;37.412;2024-03-06T19:45:28;9.87;;;2.60;;
69034;SDS011;56091;55.756;37.412;2024-03-06T19:50:29;15.93;;;2.70;;
69034;SDS011;56091;55.756;37.412;2024-03-06T19:55:30;11.50;;;3.30;;
69034;SDS011;56091;55.756;37.412;2024-03-06T20:00:31;7.43;;;2.65;;
69034;SDS011;56091;55.756;37.412;2024-03-06T20:05:34;12.20;;;2.90;;
69034;SDS011;56091;55.756;37.412;2024-03-06T20:10:35;10.50;;;2.90;;
69034;SDS011;56091;55.756;37.412;2024-03-06T20:15:36;6.18;;;2.55;;
69034;SDS011;56091;55.756;37.412;2024-03-06T20:20:38;7.60;;;2.73;;
69034;SDS011;56091;55.756;37.412;2024-03-06T20:25:41;8.00;;;2.33;;
69034;SDS011;56091;55.756;37.412;2024-03-06T20:30:43;12.97;;;4.00;;
69034;SDS011;56091;55.756;37.412;2024-03-06T20:35:45;9.40;;;3.03;;
69034;SDS011;56091;55.756;37.412;2024-03-06T20:40:47;6.60;;;2.30;;
69034;SDS011;56091;55.756;37.412;2024-03-06T20:45:49;8.77;;;2.00;;
69034;SDS011;56091;55.756;37.412;2024-03-06T20:50:51;4.47;;;1.83;;
69034;SDS011;56091;55.756;37.412;2024-03-06T20:55:52;10.85;;;2.25;;
69034;SDS011;56091;55.756;37.412;2024-03-06T21:00:53;8.40;;;2.30;;
69034;SDS011;56091;55.756;37.412;2024-03-06T21:05:55;5.97;;;1.88;;
69034;SDS011;56091;55.756;37.412;2024-03-06T21:10:56;9.10;;;2.25;;
69034;SDS011;56091;55.756;37.412;2024-03-06T21:15:58;11.87;;;2.47;;
69034;SDS011;56091;55.756;37.412;2024-03-06T21:21:00;14.02;;;2.45;;
69034;SDS011;56091;55.756;37.412;2024-03-06T21:26:03;5.37;;;1.90;;
69034;SDS011;56091;55.756;37.412;2024-03-06T21:31:04;6.03;;;1.92;;
69034;SDS011;56091;55.756;37.412;2024-03-06T21:36:04;7.40;;;2.10;;
69034;SDS011;56091;55.756;37.412;2024-03-06T21:41:07;7.15;;;1.92;;
69034;SDS011;56091;55.756;37.412;2024-03-06T21:46:11;3.80;;;1.17;;
69034;SDS011;56091;55.756;37.412;2024-03-06T21:51:12;7.27;;;1.93;;
69034;SDS011;56091;55.756;37.412;2024-03-06T21:56:13;7.13;;;2.83;;
69034;SDS011;56091;55.756;37.412;2024-03-06T22:01:14;8.90;;;2.80;;
69034;SDS011;56091;55.756;37.412;2024-03-06T22:06:15;6.97;;;2.20;;
69034;SDS011;56091;55.756;37.412;2024-03-06T22:11:15;9.18;;;2.40;;
69034;SDS011;56091;55.756;37.412;2024-03-06T22:16:16;8.63;;;2.40;;
69034;SDS011;56091;55.756;37.412;2024-03-06T22:21:17;5.73;;;2.20;;
69034;SDS011;56091;55.756;37.412;2024-03-06T22:26:18;9.07;;;2.47;;
69034;SDS011;56091;55.756;37.412;2024-03-06T22:31:18;9.77;;;2.87;;
69034;SDS011;56091;55.756;37.412;2024-03-06T22:36:19;9.00;;;2.58;;
69034;SDS011;56091;55.756;37.412;2024-03-06T22:41:21;8.83;;;2.50;;
69034;SDS011;56091;55.756;37.412;2024-03-06T22:46:23;7.90;;;2.20;;
69034;SDS011;56091;55.756;37.412;2024-03-06T22:51:23;7.73;;;2.17;;
69034;SDS011;56091;55.756;37.412;2024-03-06T22:56:24;8.17;;;2.37;;
69034;SDS011;56091;55.756;37.412;2024-03-06T23:01:25;9.15;;;2.42;;
69034;SDS011;56091;55.756;37.412;2024-03-06T23:06:26;8.40;;;2.50;;
69034;SDS011;56091;55.756;37.412;2024-03-06T23:11:26;8.90;;;2.47;;
69034;SDS011;56091;55.756;37.412;2024-03-06T23:16:29;10.32;;;2.55;;
69034;SDS011;56091;55.756;37.412;2024-03-06T23:21:30;8.33;;;2.10;;
69034;SDS011;56091;55.756;37.412;2024-03-06T23:26:32;9.68;;;2.00;;
69034;SDS011;56091;55.756;37.412;2024-03-06T23:31:36;11.00;;;2.00;;
69034;SDS011;56091;55.756;37.412;2024-03-06T23:36:37;6.88;;;1.98;;
69034;SDS011;56091;55.756;37.412;2024-03-06T23:41:39;7.37;;;1.80;;
69034;SDS011;56091;55.756;37.412;2024-03-06T23:46:40;6.90;;;1.98;;
69034;SDS011;56091;55.756;37.412;2024-03-06T23:51:41;6.93;;;2.00;;
69034;SDS011;56091;55.756;37.412;2024-03-06T23:56:45;5.17;;;1.83;;
